Terminal Aerodrome Forecast
Issued by NWS Cleveland, OH

Home | Current Version | Previous Version | Graphics & Text | Print | Product List | Glossary Off
Versions: 1 2 3 4 5 6 7 8 9 10 11 12 13 14 15 16

774
FTUS41 KCLE 261303 AAA
TAFYNG
TAF AMD
KYNG 261303Z 2613/2712 18007KT P6SM FEW015
     FM261600 17010KT P6SM SCT040
     FM270000 15010KT P6SM BKN250=

USA.gov is the U.S. government's official web portal to all federal, state and local government web resources and services.